• Join FlightAware (Why Join?)
  • Login
  • US Flag 
06:40PM EDT


 

Airport Tracker/Info


-or-


 

Live Flight TrackerFlight Track Log ✈ ASQ5678 ✈ 22-Jun-2013 ✈ KCLE - KIAD

Flight Track Log - Related Links

Times and Time Zones

All times are in EDT time to prevent confusion due to time zone crossing. See the ASQ5678 flight status page for this flight to view local times or setup timezone preferences in your user account.

Time Position Orientation Groundspeed Altitude Reporting Facility
EDT Latitude Longitude Course Direction KTS MPH feet Rate Location/Type
03:22PM 41.3897 -81.8811 159° South 168 193 1,700  Level Cleveland Center
03:22PM 41.3606 -81.8861 187° South 181 208 2,900 1,920 Climbing Cleveland Center
03:23PM 41.2900 -81.8597 164° South 273 314 5,100 1,440 Climbing Cleveland Center
03:24PM 41.2869 -81.7603 92° East 240 276 6,000 720 Climbing Cleveland Center
03:25PM 41.1836 -81.3713 127° Southeast  Level FlightAware Approximate
03:25PM 41.2836 -81.6608 93° East 249 287 6,600  Level Cleveland Center
03:26PM 41.1229 -81.2572 118° Southeast  Level FlightAware Approximate
03:26PM 41.2636 -81.5639 105° East 273 314 9,300  Level Cleveland Center
03:27PM 41.0453 -81.1810 159° South  Level FlightAware Approximate
03:27PM 41.2208 -81.4608 119° Southeast 289 333 11,100  Level Cleveland Center
03:28PM 41.1506 -81.3828 140° Southeast 309 356 11,800 1,200 Climbing Cleveland Center
03:29PM 41.0486 -81.3292 158° South 341 392 13,500 1,980 Climbing Cleveland Center
03:30PM 40.9511 -81.2814 160° South 359 413 15,800 1,680 Climbing Cleveland Center
03:31PM 40.8636 -81.2364 159° South 366 421 16,900 1,200 Climbing Cleveland Center
03:32PM 40.7661 -81.1861 159° South 375 432 18,200 1,500 Climbing Cleveland Center
03:33PM 40.6661 -81.1361 159° South 380 437 20,000 1,800 Climbing Cleveland Center
03:34PM 40.5642 -81.0833 159° South 375 432 21,900 1,800 Climbing Cleveland Center
03:35PM 40.4664 -81.0361 160° South 370 426 23,700 1,320 Climbing Cleveland Center
03:36PM 40.3856 -80.9564 143° Southeast 359 413 24,600 600 Climbing Cleveland Center
03:37PM 40.3169 -80.8417 128° Southeast 374 430 25,000 180 Climbing Cleveland Center
03:38PM 40.2442 -80.7244 129° Southeast 393 452 25,000  Level Cleveland Center
03:39PM 40.1692 -80.5967 128° Southeast 424 488 25,000  Level Cleveland Center
03:40PM 40.0900 -80.4744 130° Southeast 436 502 25,000  Level Cleveland Center
03:41PM 40.0147 -80.3472 128° Southeast 441 507 25,000  Level Cleveland Center
03:42PM 39.9394 -80.2256 129° Southeast 441 507 25,000  Level Cleveland Center
03:43PM 39.8703 -80.1178 130° Southeast 446 513 25,000  Level Cleveland Center
03:46PM 39.6911 -79.8308 129° Southeast 434 499 25,000  Level Washington Center
03:47PM 39.6142 -79.7106 130° Southeast 434 499 25,000  Level Washington Center
03:48PM 39.5389 -79.5903 129° Southeast 434 499 25,000  Level Washington Center
03:49PM 39.4872 -79.4558 116° Southeast 421 484 25,000  Level Washington Center
03:50PM 39.4606 -79.3064 103° East 421 484 25,000  Level Washington Center
03:51PM 39.4333 -79.1708 105° East 427 491 25,000 -1,020 Level Washington Center
03:52PM 39.4083 -79.0272 103° East 421 484 23,000 -2,040 Descending Washington Center
03:53PM 39.3811 -78.8836 104° East 415 478 21,000 -2,100 Descending Washington Center
03:54PM 39.3575 -78.7508 103° East 396 456 18,900 -2,040 Descending Washington Center
03:55PM 39.3339 -78.6211 103° East 381 438 16,900 -2,040 Descending Washington Center
03:56PM 39.3119 -78.4914 102° East 376 433 14,900 -1,920 Descending Washington Center
03:57PM 39.2836 -78.3669 106° East 370 426 13,200 -1,980 Descending Washington Center
03:58PM 39.2339 -78.2658 122° Southeast 347 399 11,100 -1,740 Descending Washington Center
03:59PM 39.1878 -78.1811 125° Southeast 319 367 9,700 -900 Descending Washington Center
04:00PM 39.1458 -78.0994 123° Southeast 291 335 9,300 -480 Descending Washington Center
04:01PM 39.1075 -78.0311 126° Southeast 262 302 8,800 -720 Descending Washington Center
04:02PM 39.0675 -77.9550 124° Southeast 257 296 8,000 -900 Descending Washington Center
04:03PM 39.0253 -77.8733 124° Southeast 257 296 7,100 -540 Descending Washington Center
04:04PM 38.9931 -77.8111 124° Southeast 242 278 7,000 -60 Descending Washington Center
04:05PM 38.9633 -77.7272 114° Southeast 236 272 7,000 -60 Level Washington Center
04:06PM 38.9833 -77.6000 79° East 252 290 6,900 -420 Descending Potomac TRACON
04:07PM 39.0500 -77.5667 21° North 254 292 6,000 -960 Descending Potomac TRACON
04:08PM 39.1167 -77.5667 360° North 239 275 5,000 -1,080 Descending Potomac TRACON
04:09PM 39.1667 -77.5500 14° North 240 276 3,900 -600 Descending Potomac TRACON
04:10PM 39.1500 -77.4833 108° East 197 227 3,900  Level Potomac TRACON